sensor_id;sensor_type;location;lat;lon;timestamp;temperature;humidity
4725;DHT22;2376;53.544;10.226;2024-01-25T00:00:05;7.80;99.90
4725;DHT22;2376;53.544;10.226;2024-01-25T00:02:32;7.80;99.90
4725;DHT22;2376;53.544;10.226;2024-01-25T00:05:00;7.90;99.90
4725;DHT22;2376;53.544;10.226;2024-01-25T00:07:27;7.90;99.90
4725;DHT22;2376;53.544;10.226;2024-01-25T00:09:54;7.90;99.90
4725;DHT22;2376;53.544;10.226;2024-01-25T00:12:23;7.90;99.90
4725;DHT22;2376;53.544;10.226;2024-01-25T00:14:49;7.80;99.90
4725;DHT22;2376;53.544;10.226;2024-01-25T00:17:17;7.80;99.90
4725;DHT22;2376;53.544;10.226;2024-01-25T00:19:44;7.80;99.90
4725;DHT22;2376;53.544;10.226;2024-01-25T00:22:12;7.80;99.90
4725;DHT22;2376;53.544;10.226;2024-01-25T00:24:38;7.80;99.90
4725;DHT22;2376;53.544;10.226;2024-01-25T00:27:05;7.80;99.90
4725;DHT22;2376;53.544;10.226;2024-01-25T00:29:34;7.90;99.90
4725;DHT22;2376;53.544;10.226;2024-01-25T00:32:00;7.80;99.90
4725;DHT22;2376;53.544;10.226;2024-01-25T00:34:27;7.80;99.90
4725;DHT22;2376;53.544;10.226;2024-01-25T00:36:54;7.70;99.90
4725;DHT22;2376;53.544;10.226;2024-01-25T00:39:23;7.70;99.90
4725;DHT22;2376;53.544;10.226;2024-01-25T00:41:51;7.70;99.90
4725;DHT22;2376;53.544;10.226;2024-01-25T00:44:19;7.70;99.90
4725;DHT22;2376;53.544;10.226;2024-01-25T00:46:46;7.70;99.90
4725;DHT22;2376;53.544;10.226;2024-01-25T00:49:13;7.70;99.90
4725;DHT22;2376;53.544;10.226;2024-01-25T00:51:44;7.70;99.90
4725;DHT22;2376;53.544;10.226;2024-01-25T00:54:13;7.70;99.90
4725;DHT22;2376;53.544;10.226;2024-01-25T00:56:42;7.80;99.90
4725;DHT22;2376;53.544;10.226;2024-01-25T00:59:09;7.70;99.90
4725;DHT22;2376;53.544;10.226;2024-01-25T01:01:37;7.70;99.90
4725;DHT22;2376;53.544;10.226;2024-01-25T01:04:04;7.70;99.90
4725;DHT22;2376;53.544;10.226;2024-01-25T01:06:31;7.70;99.90
4725;DHT22;2376;53.544;10.226;2024-01-25T01:08:58;7.70;99.90
4725;DHT22;2376;53.544;10.226;2024-01-25T01:11:25;7.70;99.90
4725;DHT22;2376;53.544;10.226;2024-01-25T01:13:53;7.70;99.90
4725;DHT22;2376;53.544;10.226;2024-01-25T01:16:19;7.70;99.90
4725;DHT22;2376;53.544;10.226;2024-01-25T01:18:46;7.70;99.90
4725;DHT22;2376;53.544;10.226;2024-01-25T01:21:13;7.70;99.90
4725;DHT22;2376;53.544;10.226;2024-01-25T01:23:40;7.70;99.90
4725;DHT22;2376;53.544;10.226;2024-01-25T01:26:07;7.70;99.90
4725;DHT22;2376;53.544;10.226;2024-01-25T01:28:34;7.70;99.90
4725;DHT22;2376;53.544;10.226;2024-01-25T01:31:02;7.70;99.90
4725;DHT22;2376;53.544;10.226;2024-01-25T01:33:28;7.70;99.90
4725;DHT22;2376;53.544;10.226;2024-01-25T01:35:55;7.50;99.90
4725;DHT22;2376;53.544;10.226;2024-01-25T01:38:21;7.50;99.90
4725;DHT22;2376;53.544;10.226;2024-01-25T01:40:48;7.50;99.90
4725;DHT22;2376;53.544;10.226;2024-01-25T01:43:18;7.50;99.90
4725;DHT22;2376;53.544;10.226;2024-01-25T01:45:45;7.50;99.90
4725;DHT22;2376;53.544;10.226;2024-01-25T01:48:13;7.50;99.90
4725;DHT22;2376;53.544;10.226;2024-01-25T01:50:40;7.50;99.90
4725;DHT22;2376;53.544;10.226;2024-01-25T01:53:07;7.60;99.90
4725;DHT22;2376;53.544;10.226;2024-01-25T01:55:34;7.60;99.90
4725;DHT22;2376;53.544;10.226;2024-01-25T01:58:00;7.50;99.90
4725;DHT22;2376;53.544;10.226;2024-01-25T02:00:30;7.60;99.90
4725;DHT22;2376;53.544;10.226;2024-01-25T02:02:57;7.60;99.90
4725;DHT22;2376;53.544;10.226;2024-01-25T02:05:25;7.50;99.90
4725;DHT22;2376;53.544;10.226;2024-01-25T02:07:52;7.60;99.90
4725;DHT22;2376;53.544;10.226;2024-01-25T02:10:19;7.60;99.90
4725;DHT22;2376;53.544;10.226;2024-01-25T02:12:46;7.60;99.90
4725;DHT22;2376;53.544;10.226;2024-01-25T02:15:13;7.60;99.90
4725;DHT22;2376;53.544;10.226;2024-01-25T02:17:39;7.70;99.90
4725;DHT22;2376;53.544;10.226;2024-01-25T02:20:07;7.70;99.90
4725;DHT22;2376;53.544;10.226;2024-01-25T02:22:36;7.70;99.90
4725;DHT22;2376;53.544;10.226;2024-01-25T02:25:02;7.60;99.90
4725;DHT22;2376;53.544;10.226;2024-01-25T02:27:29;7.50;99.90
4725;DHT22;2376;53.544;10.226;2024-01-25T02:29:56;7.60;99.90
4725;DHT22;2376;53.544;10.226;2024-01-25T02:32:22;7.70;99.90
4725;DHT22;2376;53.544;10.226;2024-01-25T02:34:49;7.70;99.90
4725;DHT22;2376;53.544;10.226;2024-01-25T02:37:16;7.60;99.90
4725;DHT22;2376;53.544;10.226;2024-01-25T02:39:44;7.70;99.90
4725;DHT22;2376;53.544;10.226;2024-01-25T02:42:11;7.70;99.90
4725;DHT22;2376;53.544;10.226;2024-01-25T02:44:38;7.70;99.90
4725;DHT22;2376;53.544;10.226;2024-01-25T02:47:05;7.70;99.90
4725;DHT22;2376;53.544;10.226;2024-01-25T02:49:32;7.50;99.90
4725;DHT22;2376;53.544;10.226;2024-01-25T02:51:58;7.50;99.90
4725;DHT22;2376;53.544;10.226;2024-01-25T02:54:25;7.50;99.90
4725;DHT22;2376;53.544;10.226;2024-01-25T02:56:53;7.40;99.90
4725;DHT22;2376;53.544;10.226;2024-01-25T02:59:19;7.50;99.90
4725;DHT22;2376;53.544;10.226;2024-01-25T03:01:46;7.50;99.90
4725;DHT22;2376;53.544;10.226;2024-01-25T03:04:13;7.50;99.90
4725;DHT22;2376;53.544;10.226;2024-01-25T03:06:40;7.60;99.90
4725;DHT22;2376;53.544;10.226;2024-01-25T03:09:06;7.50;99.90
4725;DHT22;2376;53.544;10.226;2024-01-25T03:11:33;7.50;99.90
4725;DHT22;2376;53.544;10.226;2024-01-25T03:14:01;7.60;99.90
4725;DHT22;2376;53.544;10.226;2024-01-25T03:16:28;7.50;99.90
4725;DHT22;2376;53.544;10.226;2024-01-25T03:18:54;7.50;99.90
4725;DHT22;2376;53.544;10.226;2024-01-25T03:21:21;7.60;99.90
4725;DHT22;2376;53.544;10.226;2024-01-25T03:23:47;7.60;99.90
4725;DHT22;2376;53.544;10.226;2024-01-25T03:26:14;7.60;99.90
4725;DHT22;2376;53.544;10.226;2024-01-25T03:28:41;7.50;99.90
4725;DHT22;2376;53.544;10.226;2024-01-25T03:31:09;7.50;99.90
4725;DHT22;2376;53.544;10.226;2024-01-25T03:33:36;7.50;99.90
4725;DHT22;2376;53.544;10.226;2024-01-25T03:36:03;7.40;99.90
4725;DHT22;2376;53.544;10.226;2024-01-25T03:38:29;7.50;99.90
4725;DHT22;2376;53.544;10.226;2024-01-25T03:40:56;7.50;99.90
4725;DHT22;2376;53.544;10.226;2024-01-25T03:43:24;7.60;99.90
4725;DHT22;2376;53.544;10.226;2024-01-25T03:45:50;7.60;99.90
4725;DHT22;2376;53.544;10.226;2024-01-25T03:48:19;7.60;99.90
4725;DHT22;2376;53.544;10.226;2024-01-25T03:50:45;7.60;99.90
4725;DHT22;2376;53.544;10.226;2024-01-25T03:53:12;7.50;99.90
4725;DHT22;2376;53.544;10.226;2024-01-25T03:55:39;7.60;99.90
4725;DHT22;2376;53.544;10.226;2024-01-25T03:58:05;7.50;99.90
4725;DHT22;2376;53.544;10.226;2024-01-25T04:00:32;7.50;99.90
4725;DHT22;2376;53.544;10.226;2024-01-25T04:02:59;7.60;99.90
4725;DHT22;2376;53.544;10.226;2024-01-25T04:05:27;7.60;99.90
4725;DHT22;2376;53.544;10.226;2024-01-25T04:07:53;7.60;99.90
4725;DHT22;2376;53.544;10.226;2024-01-25T04:10:20;7.60;99.90
4725;DHT22;2376;53.544;10.226;2024-01-25T04:12:46;7.50;99.90
4725;DHT22;2376;53.544;10.226;2024-01-25T04:15:13;7.40;99.90
4725;DHT22;2376;53.544;10.226;2024-01-25T04:17:40;7.40;99.90
4725;DHT22;2376;53.544;10.226;2024-01-25T04:20:07;7.40;99.90
4725;DHT22;2376;53.544;10.226;2024-01-25T04:22:35;7.50;99.90
4725;DHT22;2376;53.544;10.226;2024-01-25T04:25:02;7.50;99.90
4725;DHT22;2376;53.544;10.226;2024-01-25T04:27:30;7.60;99.90
4725;DHT22;2376;53.544;10.226;2024-01-25T04:29:56;7.50;99.90
4725;DHT22;2376;53.544;10.226;2024-01-25T04:32:23;7.50;99.90
4725;DHT22;2376;53.544;10.226;2024-01-25T04:34:50;7.50;99.90
4725;DHT22;2376;53.544;10.226;2024-01-25T04:37:16;7.50;99.90
4725;DHT22;2376;53.544;10.226;2024-01-25T04:39:44;7.60;99.90
4725;DHT22;2376;53.544;10.226;2024-01-25T04:42:11;7.50;99.90
4725;DHT22;2376;53.544;10.226;2024-01-25T04:44:37;7.50;99.90
4725;DHT22;2376;53.544;10.226;2024-01-25T04:47:04;7.50;99.90
4725;DHT22;2376;53.544;10.226;2024-01-25T04:49:31;7.40;99.90
4725;DHT22;2376;53.544;10.226;2024-01-25T04:51:57;7.40;99.90
4725;DHT22;2376;53.544;10.226;2024-01-25T04:54:24;7.40;99.90
4725;DHT22;2376;53.544;10.226;2024-01-25T04:56:52;7.50;99.90
4725;DHT22;2376;53.544;10.226;2024-01-25T04:59:19;7.50;99.90
4725;DHT22;2376;53.544;10.226;2024-01-25T05:01:45;7.60;99.90
4725;DHT22;2376;53.544;10.226;2024-01-25T05:04:12;7.50;99.90
4725;DHT22;2376;53.544;10.226;2024-01-25T05:06:39;7.40;99.90
4725;DHT22;2376;53.544;10.226;2024-01-25T05:09:05;7.50;99.90
4725;DHT22;2376;53.544;10.226;2024-01-25T05:11:34;7.50;99.90
4725;DHT22;2376;53.544;10.226;2024-01-25T05:14:05;7.50;99.90
4725;DHT22;2376;53.544;10.226;2024-01-25T05:16:31;7.50;99.90
4725;DHT22;2376;53.544;10.226;2024-01-25T05:18:58;7.50;99.90
4725;DHT22;2376;53.544;10.226;2024-01-25T05:21:25;7.50;99.90
4725;DHT22;2376;53.544;10.226;2024-01-25T05:23:51;7.40;99.90
4725;DHT22;2376;53.544;10.226;2024-01-25T05:26:18;7.40;99.90
4725;DHT22;2376;53.544;10.226;2024-01-25T05:28:45;7.30;99.90
4725;DHT22;2376;53.544;10.226;2024-01-25T05:31:13;7.30;99.90
4725;DHT22;2376;53.544;10.226;2024-01-25T05:33:40;7.40;99.90
4725;DHT22;2376;53.544;10.226;2024-01-25T05:36:07;7.40;99.90
4725;DHT22;2376;53.544;10.226;2024-01-25T05:38:33;7.50;99.90
4725;DHT22;2376;53.544;10.226;2024-01-25T05:41:00;7.50;99.90
4725;DHT22;2376;53.544;10.226;2024-01-25T05:43:27;7.50;99.90
4725;DHT22;2376;53.544;10.226;2024-01-25T05:45:54;7.50;99.90
4725;DHT22;2376;53.544;10.226;2024-01-25T05:48:22;7.50;99.90
4725;DHT22;2376;53.544;10.226;2024-01-25T05:50:49;7.40;99.90
4725;DHT22;2376;53.544;10.226;2024-01-25T05:53:16;7.40;99.90
4725;DHT22;2376;53.544;10.226;2024-01-25T05:55:45;7.40;99.90
4725;DHT22;2376;53.544;10.226;2024-01-25T05:58:12;7.40;99.90
4725;DHT22;2376;53.544;10.226;2024-01-25T06:00:39;7.40;99.90
4725;DHT22;2376;53.544;10.226;2024-01-25T06:03:06;7.40;99.90
4725;DHT22;2376;53.544;10.226;2024-01-25T06:05:34;7.40;99.90
4725;DHT22;2376;53.544;10.226;2024-01-25T06:08:01;7.40;99.90
4725;DHT22;2376;53.544;10.226;2024-01-25T06:10:28;7.40;99.90
4725;DHT22;2376;53.544;10.226;2024-01-25T06:12:55;7.40;99.90
4725;DHT22;2376;53.544;10.226;2024-01-25T06:15:22;7.40;99.90
4725;DHT22;2376;53.544;10.226;2024-01-25T06:17:49;7.30;99.90
4725;DHT22;2376;53.544;10.226;2024-01-25T06:20:16;7.40;99.90
4725;DHT22;2376;53.544;10.226;2024-01-25T06:22:44;7.40;99.90
4725;DHT22;2376;53.544;10.226;2024-01-25T06:25:10;7.40;99.90
4725;DHT22;2376;53.544;10.226;2024-01-25T06:27:37;7.40;99.90
4725;DHT22;2376;53.544;10.226;2024-01-25T06:30:05;7.30;99.90
4725;DHT22;2376;53.544;10.226;2024-01-25T06:32:32;7.30;99.90
4725;DHT22;2376;53.544;10.226;2024-01-25T06:34:59;7.40;99.90
4725;DHT22;2376;53.544;10.226;2024-01-25T06:37:28;7.40;99.90
4725;DHT22;2376;53.544;10.226;2024-01-25T06:39:57;7.50;99.90
4725;DHT22;2376;53.544;10.226;2024-01-25T06:42:24;7.40;99.90
4725;DHT22;2376;53.544;10.226;2024-01-25T06:44:50;7.40;99.90
4725;DHT22;2376;53.544;10.226;2024-01-25T06:47:17;7.40;99.90
4725;DHT22;2376;53.544;10.226;2024-01-25T06:49:44;7.40;99.90
4725;DHT22;2376;53.544;10.226;2024-01-25T06:52:14;7.30;99.90
4725;DHT22;2376;53.544;10.226;2024-01-25T06:54:41;7.30;99.90
4725;DHT22;2376;53.544;10.226;2024-01-25T06:57:09;7.30;99.90
4725;DHT22;2376;53.544;10.226;2024-01-25T06:59:36;7.30;99.90
4725;DHT22;2376;53.544;10.226;2024-01-25T07:02:03;7.30;99.90
4725;DHT22;2376;53.544;10.226;2024-01-25T07:04:30;7.30;99.90
4725;DHT22;2376;53.544;10.226;2024-01-25T07:06:58;7.20;99.90
4725;DHT22;2376;53.544;10.226;2024-01-25T07:09:25;7.30;99.90
4725;DHT22;2376;53.544;10.226;2024-01-25T07:11:52;7.30;99.90
4725;DHT22;2376;53.544;10.226;2024-01-25T07:14:20;7.20;99.90
4725;DHT22;2376;53.544;10.226;2024-01-25T07:16:46;7.20;99.90
4725;DHT22;2376;53.544;10.226;2024-01-25T07:19:13;7.10;99.90
4725;DHT22;2376;53.544;10.226;2024-01-25T07:21:41;7.10;99.90
4725;DHT22;2376;53.544;10.226;2024-01-25T07:24:11;7.20;99.90
4725;DHT22;2376;53.544;10.226;2024-01-25T07:26:38;7.20;99.90
4725;DHT22;2376;53.544;10.226;2024-01-25T07:29:04;7.30;99.90
4725;DHT22;2376;53.544;10.226;2024-01-25T07:31:33;7.30;99.90
4725;DHT22;2376;53.544;10.226;2024-01-25T07:33:59;7.30;99.90
4725;DHT22;2376;53.544;10.226;2024-01-25T07:36:26;7.20;99.90
4725;DHT22;2376;53.544;10.226;2024-01-25T07:38:52;7.20;99.90
4725;DHT22;2376;53.544;10.226;2024-01-25T07:41:19;7.30;99.90
4725;DHT22;2376;53.544;10.226;2024-01-25T07:43:46;7.20;99.90
4725;DHT22;2376;53.544;10.226;2024-01-25T07:46:13;7.20;99.90
4725;DHT22;2376;53.544;10.226;2024-01-25T07:48:41;7.20;99.90
4725;DHT22;2376;53.544;10.226;2024-01-25T07:51:11;7.10;99.90
4725;DHT22;2376;53.544;10.226;2024-01-25T07:53:38;7.20;99.90
4725;DHT22;2376;53.544;10.226;2024-01-25T07:56:06;7.20;99.90
4725;DHT22;2376;53.544;10.226;2024-01-25T07:58:34;7.20;99.90
4725;DHT22;2376;53.544;10.226;2024-01-25T08:01:03;7.20;99.90
4725;DHT22;2376;53.544;10.226;2024-01-25T08:03:30;7.20;99.90
4725;DHT22;2376;53.544;10.226;2024-01-25T08:05:58;7.20;99.90
4725;DHT22;2376;53.544;10.226;2024-01-25T08:08:25;7.20;99.90
4725;DHT22;2376;53.544;10.226;2024-01-25T08:10:51;7.30;99.90
4725;DHT22;2376;53.544;10.226;2024-01-25T08:13:18;7.30;99.90
4725;DHT22;2376;53.544;10.226;2024-01-25T08:15:45;7.30;99.90
4725;DHT22;2376;53.544;10.226;2024-01-25T08:18:12;7.30;99.90
4725;DHT22;2376;53.544;10.226;2024-01-25T08:20:39;7.30;99.90
4725;DHT22;2376;53.544;10.226;2024-01-25T08:23:07;7.30;99.90
4725;DHT22;2376;53.544;10.226;2024-01-25T08:25:34;7.40;99.90
4725;DHT22;2376;53.544;10.226;2024-01-25T08:28:01;7.40;99.90
4725;DHT22;2376;53.544;10.226;2024-01-25T08:30:27;7.50;99.90
4725;DHT22;2376;53.544;10.226;2024-01-25T08:32:55;7.40;99.90
4725;DHT22;2376;53.544;10.226;2024-01-25T08:35:22;7.40;99.90
4725;DHT22;2376;53.544;10.226;2024-01-25T08:37:49;7.30;99.90
4725;DHT22;2376;53.544;10.226;2024-01-25T08:40:17;7.30;99.90
4725;DHT22;2376;53.544;10.226;2024-01-25T08:42:44;7.30;99.90
4725;DHT22;2376;53.544;10.226;2024-01-25T08:45:10;7.40;99.90
4725;DHT22;2376;53.544;10.226;2024-01-25T08:47:37;7.40;99.90
4725;DHT22;2376;53.544;10.226;2024-01-25T08:50:04;7.40;99.90
4725;DHT22;2376;53.544;10.226;2024-01-25T08:52:35;7.40;99.90
4725;DHT22;2376;53.544;10.226;2024-01-25T08:55:03;7.30;99.90
4725;DHT22;2376;53.544;10.226;2024-01-25T08:57:32;7.30;99.90
4725;DHT22;2376;53.544;10.226;2024-01-25T08:59:58;7.40;99.90
4725;DHT22;2376;53.544;10.226;2024-01-25T09:02:26;7.50;99.90
4725;DHT22;2376;53.544;10.226;2024-01-25T09:04:55;7.60;99.90
4725;DHT22;2376;53.544;10.226;2024-01-25T09:07:22;7.60;99.90
4725;DHT22;2376;53.544;10.226;2024-01-25T09:09:49;7.60;99.90
4725;DHT22;2376;53.544;10.226;2024-01-25T09:12:15;7.60;99.90
4725;DHT22;2376;53.544;10.226;2024-01-25T09:14:43;7.60;99.90
4725;DHT22;2376;53.544;10.226;2024-01-25T09:17:10;7.50;99.90
4725;DHT22;2376;53.544;10.226;2024-01-25T09:19:37;7.60;99.90
4725;DHT22;2376;53.544;10.226;2024-01-25T09:22:04;7.50;99.90
4725;DHT22;2376;53.544;10.226;2024-01-25T09:24:31;7.50;99.90
4725;DHT22;2376;53.544;10.226;2024-01-25T09:26:58;7.40;99.90
4725;DHT22;2376;53.544;10.226;2024-01-25T09:29:26;7.50;99.90
4725;DHT22;2376;53.544;10.226;2024-01-25T09:31:54;7.60;99.90
4725;DHT22;2376;53.544;10.226;2024-01-25T09:34:21;7.60;99.90
4725;DHT22;2376;53.544;10.226;2024-01-25T09:36:47;7.60;99.90
4725;DHT22;2376;53.544;10.226;2024-01-25T09:39:14;7.50;99.90
4725;DHT22;2376;53.544;10.226;2024-01-25T09:41:41;7.60;99.90
4725;DHT22;2376;53.544;10.226;2024-01-25T09:44:08;7.60;99.90
4725;DHT22;2376;53.544;10.226;2024-01-25T09:46:35;7.60;99.90
4725;DHT22;2376;53.544;10.226;2024-01-25T09:49:03;7.70;99.90
4725;DHT22;2376;53.544;10.226;2024-01-25T09:51:37;7.70;99.90
4725;DHT22;2376;53.544;10.226;2024-01-25T09:54:05;7.70;99.90
4725;DHT22;2376;53.544;10.226;2024-01-25T09:56:32;7.90;99.90
4725;DHT22;2376;53.544;10.226;2024-01-25T09:58:59;7.80;99.90
4725;DHT22;2376;53.544;10.226;2024-01-25T10:01:26;7.90;99.90
4725;DHT22;2376;53.544;10.226;2024-01-25T10:03:54;7.80;99.90
4725;DHT22;2376;53.544;10.226;2024-01-25T10:06:23;7.70;99.90
4725;DHT22;2376;53.544;10.226;2024-01-25T10:08:49;7.70;99.90
4725;DHT22;2376;53.544;10.226;2024-01-25T10:11:16;7.90;99.90
4725;DHT22;2376;53.544;10.226;2024-01-25T10:13:44;7.80;99.90
4725;DHT22;2376;53.544;10.226;2024-01-25T10:16:11;7.80;99.90
4725;DHT22;2376;53.544;10.226;2024-01-25T10:18:40;7.90;99.90
4725;DHT22;2376;53.544;10.226;2024-01-25T10:21:07;8.00;99.90
4725;DHT22;2376;53.544;10.226;2024-01-25T10:23:36;8.00;99.90
4725;DHT22;2376;53.544;10.226;2024-01-25T10:26:03;8.00;99.90
4725;DHT22;2376;53.544;10.226;2024-01-25T10:28:30;8.00;99.90
4725;DHT22;2376;53.544;10.226;2024-01-25T10:31:00;8.00;99.90
4725;DHT22;2376;53.544;10.226;2024-01-25T10:33:29;7.90;99.90
4725;DHT22;2376;53.544;10.226;2024-01-25T10:35:57;7.90;99.90
4725;DHT22;2376;53.544;10.226;2024-01-25T10:38:28;8.00;99.90
4725;DHT22;2376;53.544;10.226;2024-01-25T10:40:58;8.00;99.90
4725;DHT22;2376;53.544;10.226;2024-01-25T10:43:26;8.00;99.90
4725;DHT22;2376;53.544;10.226;2024-01-25T10:45:53;8.00;99.90
4725;DHT22;2376;53.544;10.226;2024-01-25T10:48:23;8.10;99.90
4725;DHT22;2376;53.544;10.226;2024-01-25T10:50:49;8.10;99.90
4725;DHT22;2376;53.544;10.226;2024-01-25T10:53:16;8.00;99.90
4725;DHT22;2376;53.544;10.226;2024-01-25T10:55:43;8.10;99.90
4725;DHT22;2376;53.544;10.226;2024-01-25T10:58:12;8.10;99.90
4725;DHT22;2376;53.544;10.226;2024-01-25T11:00:39;8.10;99.90
4725;DHT22;2376;53.544;10.226;2024-01-25T11:03:06;8.00;99.90
4725;DHT22;2376;53.544;10.226;2024-01-25T11:05:33;8.00;99.90
4725;DHT22;2376;53.544;10.226;2024-01-25T11:08:00;8.00;99.90
4725;DHT22;2376;53.544;10.226;2024-01-25T11:10:27;8.10;99.90
4725;DHT22;2376;53.544;10.226;2024-01-25T11:12:56;8.00;99.90
4725;DHT22;2376;53.544;10.226;2024-01-25T11:15:30;8.00;99.90
4725;DHT22;2376;53.544;10.226;2024-01-25T11:17:57;8.00;99.90
4725;DHT22;2376;53.544;10.226;2024-01-25T11:20:25;8.00;99.90
4725;DHT22;2376;53.544;10.226;2024-01-25T11:22:58;8.20;99.90
4725;DHT22;2376;53.544;10.226;2024-01-25T11:25:28;8.10;99.90
4725;DHT22;2376;53.544;10.226;2024-01-25T11:27:55;8.10;99.90
4725;DHT22;2376;53.544;10.226;2024-01-25T11:30:24;8.30;99.90
4725;DHT22;2376;53.544;10.226;2024-01-25T11:32:51;8.20;99.90
4725;DHT22;2376;53.544;10.226;2024-01-25T11:35:18;8.20;99.90
4725;DHT22;2376;53.544;10.226;2024-01-25T11:37:46;8.20;99.90
4725;DHT22;2376;53.544;10.226;2024-01-25T11:40:15;8.20;99.90
4725;DHT22;2376;53.544;10.226;2024-01-25T11:42:43;8.20;99.90
4725;DHT22;2376;53.544;10.226;2024-01-25T11:45:11;8.30;99.90
4725;DHT22;2376;53.544;10.226;2024-01-25T11:47:39;8.30;99.90
4725;DHT22;2376;53.544;10.226;2024-01-25T11:50:08;8.30;99.90
4725;DHT22;2376;53.544;10.226;2024-01-25T11:52:35;8.30;99.90
4725;DHT22;2376;53.544;10.226;2024-01-25T11:55:03;8.30;99.90
4725;DHT22;2376;53.544;10.226;2024-01-25T11:57:31;8.10;99.90
4725;DHT22;2376;53.544;10.226;2024-01-25T11:59:58;8.10;99.90
4725;DHT22;2376;53.544;10.226;2024-01-25T12:02:26;8.00;99.90
4725;DHT22;2376;53.544;10.226;2024-01-25T12:04:56;8.10;99.90
4725;DHT22;2376;53.544;10.226;2024-01-25T12:07:23;8.20;99.90
4725;DHT22;2376;53.544;10.226;2024-01-25T12:10:01;8.10;99.90
4725;DHT22;2376;53.544;10.226;2024-01-25T12:12:28;8.20;99.90
4725;DHT22;2376;53.544;10.226;2024-01-25T12:14:58;8.30;99.90
4725;DHT22;2376;53.544;10.226;2024-01-25T12:17:26;8.40;99.90
4725;DHT22;2376;53.544;10.226;2024-01-25T12:19:56;8.30;99.90
4725;DHT22;2376;53.544;10.226;2024-01-25T12:22:23;8.30;99.90
4725;DHT22;2376;53.544;10.226;2024-01-25T12:24:52;8.30;99.90
4725;DHT22;2376;53.544;10.226;2024-01-25T12:27:20;8.30;99.90
4725;DHT22;2376;53.544;10.226;2024-01-25T12:29:46;8.20;99.90
4725;DHT22;2376;53.544;10.226;2024-01-25T12:32:13;8.30;99.90
4725;DHT22;2376;53.544;10.226;2024-01-25T12:34:40;8.40;99.90
4725;DHT22;2376;53.544;10.226;2024-01-25T12:37:08;8.40;99.90
4725;DHT22;2376;53.544;10.226;2024-01-25T12:39:35;8.40;99.90
4725;DHT22;2376;53.544;10.226;2024-01-25T12:42:02;8.40;99.90
4725;DHT22;2376;53.544;10.226;2024-01-25T12:44:29;8.30;99.90
4725;DHT22;2376;53.544;10.226;2024-01-25T12:46:55;8.20;99.90
4725;DHT22;2376;53.544;10.226;2024-01-25T12:49:27;8.20;99.90
4725;DHT22;2376;53.544;10.226;2024-01-25T12:51:54;8.10;99.90
4725;DHT22;2376;53.544;10.226;2024-01-25T12:54:22;8.10;99.90
4725;DHT22;2376;53.544;10.226;2024-01-25T12:56:49;8.10;99.90
4725;DHT22;2376;53.544;10.226;2024-01-25T12:59:16;8.10;99.90
4725;DHT22;2376;53.544;10.226;2024-01-25T13:01:43;8.20;99.90
4725;DHT22;2376;53.544;10.226;2024-01-25T13:04:09;8.20;99.90
4725;DHT22;2376;53.544;10.226;2024-01-25T13:06:36;8.10;99.90
4725;DHT22;2376;53.544;10.226;2024-01-25T13:09:03;8.10;99.90
4725;DHT22;2376;53.544;10.226;2024-01-25T13:11:31;8.00;99.90
4725;DHT22;2376;53.544;10.226;2024-01-25T13:13:58;8.00;99.90
4725;DHT22;2376;53.544;10.226;2024-01-25T13:16:24;8.00;99.90
4725;DHT22;2376;53.544;10.226;2024-01-25T13:18:51;8.00;99.90
4725;DHT22;2376;53.544;10.226;2024-01-25T13:21:17;8.00;99.90
4725;DHT22;2376;53.544;10.226;2024-01-25T13:23:44;8.10;99.90
4725;DHT22;2376;53.544;10.226;2024-01-25T13:26:11;8.00;99.90
4725;DHT22;2376;53.544;10.226;2024-01-25T13:28:39;8.10;99.90
4725;DHT22;2376;53.544;10.226;2024-01-25T13:31:06;8.20;99.90
4725;DHT22;2376;53.544;10.226;2024-01-25T13:33:32;8.10;99.90
4725;DHT22;2376;53.544;10.226;2024-01-25T13:35:59;8.10;99.90
4725;DHT22;2376;53.544;10.226;2024-01-25T13:38:26;8.20;99.90
4725;DHT22;2376;53.544;10.226;2024-01-25T13:40:52;8.20;99.90
4725;DHT22;2376;53.544;10.226;2024-01-25T13:43:19;8.20;99.90
4725;DHT22;2376;53.544;10.226;2024-01-25T13:45:47;8.20;99.90
4725;DHT22;2376;53.544;10.226;2024-01-25T13:48:14;8.30;99.90
4725;DHT22;2376;53.544;10.226;2024-01-25T13:50:40;8.20;99.90
4725;DHT22;2376;53.544;10.226;2024-01-25T13:53:07;8.10;99.90
4725;DHT22;2376;53.544;10.226;2024-01-25T13:55:34;8.10;99.90
4725;DHT22;2376;53.544;10.226;2024-01-25T13:58:00;8.10;99.90
4725;DHT22;2376;53.544;10.226;2024-01-25T14:00:27;8.00;99.90
4725;DHT22;2376;53.544;10.226;2024-01-25T14:02:55;8.10;99.90
4725;DHT22;2376;53.544;10.226;2024-01-25T14:05:22;8.10;99.90
4725;DHT22;2376;53.544;10.226;2024-01-25T14:07:49;8.10;99.90
4725;DHT22;2376;53.544;10.226;2024-01-25T14:10:16;8.00;99.90
4725;DHT22;2376;53.544;10.226;2024-01-25T14:12:43;8.00;99.90
4725;DHT22;2376;53.544;10.226;2024-01-25T14:15:09;8.10;99.90
4725;DHT22;2376;53.544;10.226;2024-01-25T14:17:37;8.10;99.90
4725;DHT22;2376;53.544;10.226;2024-01-25T14:20:06;8.20;99.90
4725;DHT22;2376;53.544;10.226;2024-01-25T14:22:34;8.20;99.90
4725;DHT22;2376;53.544;10.226;2024-01-25T14:25:00;8.20;99.90
4725;DHT22;2376;53.544;10.226;2024-01-25T14:27:28;8.20;99.90
4725;DHT22;2376;53.544;10.226;2024-01-25T14:29:54;8.20;99.90
4725;DHT22;2376;53.544;10.226;2024-01-25T14:32:21;8.20;99.90
4725;DHT22;2376;53.544;10.226;2024-01-25T14:34:48;8.30;99.90
4725;DHT22;2376;53.544;10.226;2024-01-25T14:37:16;8.30;99.90
4725;DHT22;2376;53.544;10.226;2024-01-25T14:39:43;8.30;99.90
4725;DHT22;2376;53.544;10.226;2024-01-25T14:42:10;8.40;99.90
4725;DHT22;2376;53.544;10.226;2024-01-25T14:44:37;8.50;99.90
4725;DHT22;2376;53.544;10.226;2024-01-25T14:47:04;8.50;99.90
4725;DHT22;2376;53.544;10.226;2024-01-25T14:49:31;8.40;99.90
4725;DHT22;2376;53.544;10.226;2024-01-25T14:51:57;8.40;99.90
4725;DHT22;2376;53.544;10.226;2024-01-25T14:54:25;8.50;99.90
4725;DHT22;2376;53.544;10.226;2024-01-25T14:56:52;8.60;99.90
4725;DHT22;2376;53.544;10.226;2024-01-25T14:59:19;8.70;99.90
4725;DHT22;2376;53.544;10.226;2024-01-25T15:01:46;8.60;99.90
4725;DHT22;2376;53.544;10.226;2024-01-25T15:04:13;8.50;99.90
4725;DHT22;2376;53.544;10.226;2024-01-25T15:06:42;8.50;99.90
4725;DHT22;2376;53.544;10.226;2024-01-25T15:09:08;8.60;99.90
4725;DHT22;2376;53.544;10.226;2024-01-25T15:11:36;8.60;99.90
4725;DHT22;2376;53.544;10.226;2024-01-25T15:14:03;8.70;99.90
4725;DHT22;2376;53.544;10.226;2024-01-25T15:16:30;8.70;99.90
4725;DHT22;2376;53.544;10.226;2024-01-25T15:18:57;8.60;99.90
4725;DHT22;2376;53.544;10.226;2024-01-25T15:21:23;8.70;99.90
4725;DHT22;2376;53.544;10.226;2024-01-25T15:23:50;8.70;99.90
4725;DHT22;2376;53.544;10.226;2024-01-25T15:26:17;8.60;99.90
4725;DHT22;2376;53.544;10.226;2024-01-25T15:28:45;8.60;99.90
4725;DHT22;2376;53.544;10.226;2024-01-25T15:31:12;8.60;99.90
4725;DHT22;2376;53.544;10.226;2024-01-25T15:33:39;8.60;99.90
4725;DHT22;2376;53.544;10.226;2024-01-25T15:36:07;8.60;99.90
4725;DHT22;2376;53.544;10.226;2024-01-25T15:38:34;8.50;99.90
4725;DHT22;2376;53.544;10.226;2024-01-25T15:41:00;8.40;99.90
4725;DHT22;2376;53.544;10.226;2024-01-25T15:43:27;8.50;99.90
4725;DHT22;2376;53.544;10.226;2024-01-25T15:45:55;8.40;99.90
4725;DHT22;2376;53.544;10.226;2024-01-25T15:48:22;8.50;99.90
4725;DHT22;2376;53.544;10.226;2024-01-25T15:50:48;8.40;99.90
4725;DHT22;2376;53.544;10.226;2024-01-25T15:53:15;8.40;99.90
4725;DHT22;2376;53.544;10.226;2024-01-25T15:55:42;8.40;99.90
4725;DHT22;2376;53.544;10.226;2024-01-25T15:58:08;8.30;99.90
4725;DHT22;2376;53.544;10.226;2024-01-25T16:00:35;8.30;99.90